Time;durP1;ratioP1;P1;durP2;ratioP2;P2;SDS_P1;SDS_P2;PMS_P1;PMS_P2;Temp;Humidity;BMP_temperature;BMP_pressure;BME280_temperature;BME280_humidity;BME280_pressure;Samples;Min_cycle;Max_cycle;Signal;HPM_P1;HPM_P2
2021/09/20 00:00:40;;;;;;;14.30;8.43;;;11.10;79.10;;;;;;5053738;28;20032;-46
2021/09/20 00:03:05;;;;;;;9.55;7.30;;;11.00;79.10;;;;;;5053617;28;20025;-46
2021/09/20 00:05:31;;;;;;;9.02;7.05;;;11.00;79.20;;;;;;5053635;28;20534;-49
2021/09/20 00:07:57;;;;;;;11.07;7.32;;;11.00;79.30;;;;;;5053496;28;20380;-48
2021/09/20 00:10:23;;;;;;;14.88;7.88;;;11.10;78.90;;;;;;5053471;28;20021;-49
2021/09/20 00:12:48;;;;;;;12.55;7.25;;;11.00;79.00;;;;;;5053415;28;20021;-49
2021/09/20 00:15:15;;;;;;;13.93;8.38;;;11.00;79.10;;;;;;5053530;28;20028;-48
2021/09/20 00:17:41;;;;;;;12.70;8.23;;;11.00;79.00;;;;;;5052941;28;20095;-47
2021/09/20 00:20:09;;;;;;;11.75;7.00;;;11.10;78.80;;;;;;5053197;28;20029;-49
2021/09/20 00:22:35;;;;;;;15.70;8.32;;;11.00;78.80;;;;;;5053082;28;20028;-46
2021/09/20 00:25:01;;;;;;;11.48;6.97;;;11.00;79.10;;;;;;5052934;28;20020;-51
2021/09/20 00:27:27;;;;;;;11.63;7.22;;;10.90;79.10;;;;;;5053203;28;20132;-47
2021/09/20 00:29:53;;;;;;;12.73;7.35;;;10.90;79.00;;;;;;5053837;28;20377;-48
2021/09/20 00:32:19;;;;;;;9.80;7.03;;;10.90;79.20;;;;;;5053255;28;20033;-48
2021/09/20 00:34:44;;;;;;;12.80;8.13;;;10.90;79.40;;;;;;5053074;28;20029;-48
2021/09/20 00:37:11;;;;;;;9.98;7.00;;;10.80;79.40;;;;;;5053061;28;20025;-47
2021/09/20 00:39:37;;;;;;;14.40;7.68;;;10.80;79.30;;;;;;5053236;28;20438;-46
2021/09/20 00:42:03;;;;;;;12.88;7.15;;;10.80;79.30;;;;;;5052775;28;20029;-47
2021/09/20 00:44:29;;;;;;;12.10;6.85;;;10.80;79.30;;;;;;5053483;28;20031;-48
2021/09/20 00:46:54;;;;;;;10.35;7.15;;;10.80;79.30;;;;;;5052910;28;20033;-48
2021/09/20 00:49:20;;;;;;;10.10;7.28;;;10.80;79.00;;;;;;5052884;28;20056;-46
2021/09/20 00:51:46;;;;;;;11.68;6.93;;;10.80;78.70;;;;;;5052828;28;20032;-47
2021/09/20 00:54:11;;;;;;;10.43;6.43;;;10.80;78.80;;;;;;5052694;28;20544;-52
2021/09/20 00:56:37;;;;;;;11.75;6.93;;;10.70;79.00;;;;;;5053180;28;20029;-47
2021/09/20 00:59:03;;;;;;;11.38;6.38;;;10.70;79.00;;;;;;5052883;28;20461;-51
2021/09/20 01:01:28;;;;;;;14.73;6.93;;;10.70;78.70;;;;;;5052467;28;20461;-46
2021/09/20 01:03:54;;;;;;;12.52;8.15;;;10.70;78.80;;;;;;5052236;28;20033;-47
2021/09/20 01:06:20;;;;;;;9.93;6.78;;;10.70;78.90;;;;;;5052305;28;20400;-47
2021/09/20 01:08:45;;;;;;;11.40;7.32;;;10.70;78.80;;;;;;5052253;28;20028;-47
2021/09/20 01:11:11;;;;;;;12.68;7.40;;;10.80;78.90;;;;;;5052553;28;20098;-48
2021/09/20 01:13:37;;;;;;;15.23;6.88;;;10.80;78.50;;;;;;5052476;28;20100;-47
2021/09/20 01:16:03;;;;;;;9.07;6.65;;;10.80;78.40;;;;;;5052556;28;20027;-47
2021/09/20 01:18:29;;;;;;;11.15;7.55;;;10.90;78.00;;;;;;5051948;28;20049;-48
2021/09/20 01:20:54;;;;;;;10.88;7.22;;;11.00;77.70;;;;;;5052215;28;20048;-46
2021/09/20 01:23:20;;;;;;;8.05;5.97;;;11.00;77.60;;;;;;5050741;28;20025;-46
2021/09/20 01:25:47;;;;;;;8.40;6.30;;;11.10;77.20;;;;;;5052694;28;20049;-47
2021/09/20 01:28:12;;;;;;;11.70;7.78;;;11.10;77.20;;;;;;5052297;28;20029;-48
2021/09/20 01:30:38;;;;;;;10.77;7.22;;;11.10;77.10;;;;;;5052273;28;20021;-46
2021/09/20 01:33:04;;;;;;;9.65;6.75;;;11.10;77.10;;;;;;5052140;28;20182;-47
2021/09/20 01:35:30;;;;;;;12.00;6.70;;;11.20;76.90;;;;;;5052527;28;20078;-47
2021/09/20 01:37:56;;;;;;;10.35;6.57;;;11.20;76.80;;;;;;5052816;28;20029;-46
2021/09/20 01:40:22;;;;;;;12.13;5.65;;;11.30;76.30;;;;;;5052281;28;20131;-46
2021/09/20 01:42:48;;;;;;;9.27;5.53;;;11.30;76.10;;;;;;5052157;28;20416;-47
2021/09/20 01:45:15;;;;;;;8.18;6.13;;;11.30;76.10;;;;;;5052832;28;20029;-48
2021/09/20 01:47:42;;;;;;;10.95;6.80;;;11.30;75.60;;;;;;5052246;28;20435;-47
2021/09/20 01:50:10;;;;;;;8.98;6.20;;;11.40;75.50;;;;;;5052150;28;20021;-49
2021/09/20 01:52:36;;;;;;;11.27;6.57;;;11.40;75.20;;;;;;5052085;28;20032;-49
2021/09/20 01:55:03;;;;;;;11.70;6.68;;;11.40;75.30;;;;;;5053610;28;20036;-47
2021/09/20 01:57:28;;;;;;;18.23;7.53;;;11.40;74.90;;;;;;5055971;28;20025;-47
2021/09/20 01:59:54;;;;;;;12.38;6.47;;;11.40;74.80;;;;;;5056277;28;20037;-46
2021/09/20 02:02:20;;;;;;;11.70;7.13;;;11.60;74.60;;;;;;5055804;28;20052;-48
2021/09/20 02:04:45;;;;;;;8.95;6.57;;;11.80;73.90;;;;;;5055863;28;20013;-49
2021/09/20 02:07:11;;;;;;;12.80;6.80;;;11.70;74.30;;;;;;5055803;28;20021;-47
2021/09/20 02:09:37;;;;;;;8.82;6.47;;;11.70;74.00;;;;;;5056049;28;20426;-47
2021/09/20 02:12:03;;;;;;;8.80;6.40;;;11.70;74.30;;;;;;5055921;28;20029;-47
2021/09/20 02:14:28;;;;;;;10.70;6.50;;;11.80;73.60;;;;;;5055613;28;20025;-50
2021/09/20 02:16:54;;;;;;;9.40;6.38;;;11.80;73.70;;;;;;5055657;28;20040;-47
2021/09/20 02:19:19;;;;;;;11.93;7.18;;;11.80;73.10;;;;;;5055881;28;20057;-47
2021/09/20 02:21:45;;;;;;;11.75;7.45;;;11.70;73.50;;;;;;5055442;28;20029;-47
2021/09/20 02:24:11;;;;;;;12.25;6.75;;;11.80;73.40;;;;;;5055900;28;20029;-49
2021/09/20 02:26:37;;;;;;;10.27;6.57;;;11.80;73.50;;;;;;5055678;28;20031;-47
2021/09/20 02:29:04;;;;;;;8.52;6.70;;;11.80;73.10;;;;;;5055497;28;20059;-47
2021/09/20 02:31:30;;;;;;;8.73;6.78;;;11.80;73.20;;;;;;5056130;28;20033;-51
2021/09/20 02:33:56;;;;;;;9.85;6.25;;;11.80;73.30;;;;;;5055767;28;20454;-48
2021/09/20 02:36:22;;;;;;;11.82;7.00;;;11.60;73.90;;;;;;5055456;28;20021;-50
2021/09/20 02:38:47;;;;;;;9.68;7.53;;;11.60;73.80;;;;;;5055540;28;20021;-49
2021/09/20 02:41:14;;;;;;;10.32;7.50;;;11.60;74.20;;;;;;5053849;28;20162;-47
2021/09/20 02:43:40;;;;;;;9.88;6.47;;;11.70;73.80;;;;;;5055332;28;20141;-47
2021/09/20 02:46:06;;;;;;;9.52;6.72;;;11.70;74.10;;;;;;5055204;28;20500;-48
2021/09/20 02:48:31;;;;;;;9.10;7.32;;;11.80;73.40;;;;;;5055115;28;20108;-49
2021/09/20 02:50:57;;;;;;;8.77;7.30;;;11.80;73.90;;;;;;5055634;28;20103;-47
2021/09/20 02:53:22;;;;;;;10.05;7.55;;;11.80;73.70;;;;;;5055970;28;20088;-51
2021/09/20 02:55:48;;;;;;;10.90;6.95;;;11.80;73.50;;;;;;5055343;28;20381;-49
2021/09/20 02:58:14;;;;;;;12.07;7.90;;;11.80;73.60;;;;;;5055289;28;20021;-49
2021/09/20 03:00:40;;;;;;;9.20;7.40;;;11.80;73.40;;;;;;5055725;28;20031;-49
2021/09/20 03:03:07;;;;;;;11.55;7.15;;;11.80;73.90;;;;;;5055149;28;20036;-49
2021/09/20 03:05:34;;;;;;;14.82;8.65;;;11.80;73.70;;;;;;5054683;28;20036;-48
2021/09/20 03:07:59;;;;;;;13.40;7.93;;;11.80;74.10;;;;;;5055100;28;20029;-48
2021/09/20 03:10:25;;;;;;;11.90;7.95;;;11.80;73.80;;;;;;5054741;28;20465;-47
2021/09/20 03:12:50;;;;;;;10.50;7.93;;;11.80;73.80;;;;;;5054595;28;20104;-47
2021/09/20 03:15:16;;;;;;;10.02;6.85;;;11.80;74.00;;;;;;5054895;28;20457;-48
2021/09/20 03:17:42;;;;;;;11.68;8.23;;;11.80;74.00;;;;;;5054480;28;20052;-47
2021/09/20 03:20:08;;;;;;;12.00;7.28;;;11.60;74.50;;;;;;5053499;28;20105;-48
2021/09/20 03:22:34;;;;;;;10.55;7.28;;;11.50;74.80;;;;;;5054912;28;20445;-47
2021/09/20 03:24:59;;;;;;;14.98;9.48;;;11.70;75.00;;;;;;5054883;28;20067;-48
2021/09/20 03:27:25;;;;;;;11.07;7.68;;;11.70;74.70;;;;;;5054384;28;20068;-47
2021/09/20 03:29:50;;;;;;;11.65;7.80;;;11.70;74.60;;;;;;5054558;28;20100;-50
2021/09/20 03:32:16;;;;;;;11.85;6.93;;;11.60;74.90;;;;;;5054468;28;20028;-47
2021/09/20 03:34:42;;;;;;;11.45;7.97;;;11.70;75.00;;;;;;5054133;28;20025;-47
2021/09/20 03:37:07;;;;;;;8.70;6.68;;;11.70;74.90;;;;;;5054151;28;20029;-47
2021/09/20 03:39:33;;;;;;;10.60;7.15;;;11.70;74.60;;;;;;5052706;28;20029;-47
2021/09/20 03:41:58;;;;;;;13.18;8.00;;;11.80;74.90;;;;;;5054447;28;20032;-48
2021/09/20 03:44:24;;;;;;;11.38;7.05;;;11.70;74.50;;;;;;5054019;28;20032;-48
2021/09/20 03:46:50;;;;;;;14.25;8.68;;;11.80;74.50;;;;;;5052590;28;20072;-47
2021/09/20 03:49:17;;;;;;;10.98;6.97;;;11.80;74.60;;;;;;5053836;28;20071;-49
2021/09/20 03:51:43;;;;;;;8.95;6.88;;;11.70;74.60;;;;;;5053636;28;20079;-48
2021/09/20 03:54:09;;;;;;;10.90;7.65;;;11.80;74.50;;;;;;5054032;28;20044;-51
2021/09/20 03:56:34;;;;;;;8.27;6.82;;;11.80;74.40;;;;;;5053835;28;20082;-47
2021/09/20 03:59:00;;;;;;;12.02;8.05;;;11.80;74.10;;;;;;5053840;28;20024;-49
2021/09/20 04:01:26;;;;;;;10.57;7.07;;;11.80;74.20;;;;;;5053819;28;20021;-49
2021/09/20 04:03:51;;;;;;;10.40;7.07;;;11.80;74.20;;;;;;5053536;28;20116;-49
2021/09/20 04:06:17;;;;;;;9.93;7.38;;;11.70;74.60;;;;;;5053839;28;20025;-47
2021/09/20 04:08:43;;;;;;;10.38;8.10;;;11.80;74.50;;;;;;5053514;28;20104;-48
2021/09/20 04:11:08;;;;;;;14.18;8.02;;;11.80;74.40;;;;;;5053106;28;20086;-47
2021/09/20 04:13:34;;;;;;;12.55;8.30;;;11.80;74.00;;;;;;5052939;28;20029;-48
2021/09/20 04:16:00;;;;;;;11.88;7.68;;;11.80;74.00;;;;;;5052939;28;20163;-48
2021/09/20 04:18:28;;;;;;;11.65;7.72;;;11.80;74.20;;;;;;5052087;28;20469;-48
2021/09/20 04:20:55;;;;;;;10.18;7.65;;;11.70;74.00;;;;;;5053505;28;20025;-50
2021/09/20 04:23:22;;;;;;;9.95;7.28;;;11.80;74.10;;;;;;5053681;28;20039;-48
2021/09/20 04:25:49;;;;;;;9.48;7.60;;;11.70;74.10;;;;;;5053247;28;20033;-49
2021/09/20 04:28:15;;;;;;;11.70;7.53;;;11.80;73.70;;;;;;5053435;28;20032;-48
2021/09/20 04:30:44;;;;;;;12.50;7.25;;;11.90;73.40;;;;;;5053224;28;20380;-48
2021/09/20 04:33:18;;;;;;;10.10;6.68;;;11.80;73.40;;;;;;5051920;28;20024;-52
2021/09/20 04:35:45;;;;;;;12.13;7.57;;;11.70;73.80;;;;;;5053220;28;20025;-50
2021/09/20 04:38:11;;;;;;;10.88;8.15;;;11.70;73.90;;;;;;5053302;28;20057;-49
2021/09/20 04:40:37;;;;;;;10.88;7.50;;;11.80;73.50;;;;;;5051809;28;20082;-48
2021/09/20 04:43:04;;;;;;;11.73;8.25;;;11.90;73.20;;;;;;5053265;28;20119;-50
2021/09/20 04:45:30;;;;;;;9.95;6.85;;;11.80;73.30;;;;;;5053191;28;20032;-48
2021/09/20 04:47:56;;;;;;;12.63;8.20;;;11.80;73.30;;;;;;5053037;28;20025;-48
2021/09/20 04:50:22;;;;;;;10.68;7.35;;;11.70;73.70;;;;;;5052944;28;20021;-48
2021/09/20 04:52:47;;;;;;;12.52;7.50;;;11.80;73.20;;;;;;5051920;28;20067;-49
2021/09/20 04:55:13;;;;;;;10.80;8.05;;;11.80;73.20;;;;;;5053422;28;20496;-48
2021/09/20 04:57:39;;;;;;;14.43;7.50;;;11.70;73.70;;;;;;5053193;28;20381;-47
2021/09/20 05:00:06;;;;;;;15.93;8.95;;;11.70;73.10;;;;;;5052840;28;20024;-48
2021/09/20 05:02:31;;;;;;;15.65;9.25;;;11.70;72.70;;;;;;5052884;28;20029;-49
2021/09/20 05:04:57;;;;;;;12.40;8.52;;;11.80;72.90;;;;;;5052922;28;20021;-50
2021/09/20 05:07:23;;;;;;;11.77;8.45;;;11.70;72.80;;;;;;5052656;28;20021;-48
2021/09/20 05:09:48;;;;;;;11.93;8.82;;;11.80;72.30;;;;;;5051526;28;20036;-48
2021/09/20 05:12:14;;;;;;;12.90;8.52;;;11.80;72.20;;;;;;5052738;28;20025;-49
2021/09/20 05:14:40;;;;;;;14.93;9.23;;;11.80;72.10;;;;;;5052736;28;20373;-48
2021/09/20 05:17:05;;;;;;;10.85;7.38;;;11.80;71.30;;;;;;5052300;28;20047;-47
2021/09/20 05:19:31;;;;;;;13.07;8.60;;;11.80;70.90;;;;;;5052382;28;20025;-48
2021/09/20 05:21:57;;;;;;;14.13;9.93;;;11.80;71.00;;;;;;5052407;28;20065;-47
2021/09/20 05:24:23;;;;;;;16.70;9.60;;;11.80;71.00;;;;;;5052325;28;20465;-48
2021/09/20 05:26:49;;;;;;;14.05;10.05;;;11.90;70.30;;;;;;5052649;28;20109;-49
2021/09/20 05:29:15;;;;;;;18.02;9.70;;;12.00;70.00;;;;;;5052332;28;20029;-49
2021/09/20 05:31:40;;;;;;;14.77;10.35;;;12.00;69.70;;;;;;5056513;28;20029;-48
2021/09/20 05:34:06;;;;;;;17.13;10.13;;;11.80;70.00;;;;;;5056658;28;20480;-47
2021/09/20 05:36:32;;;;;;;13.15;9.43;;;11.80;70.30;;;;;;5056412;28;20082;-48
2021/09/20 05:38:57;;;;;;;12.57;10.13;;;11.90;70.00;;;;;;5056247;28;20029;-47
2021/09/20 05:41:23;;;;;;;14.10;9.45;;;11.80;70.30;;;;;;5056372;28;20052;-48
2021/09/20 05:43:49;;;;;;;13.05;9.90;;;11.90;69.80;;;;;;5056116;28;20029;-47
2021/09/20 05:46:14;;;;;;;14.63;11.05;;;11.80;70.00;;;;;;5056198;28;20040;-48
2021/09/20 05:48:40;;;;;;;16.98;11.23;;;11.90;69.90;;;;;;5056043;28;20032;-51
2021/09/20 05:51:06;;;;;;;18.08;10.40;;;11.90;69.30;;;;;;5056456;28;20025;-49
2021/09/20 05:53:32;;;;;;;13.40;10.23;;;12.00;69.30;;;;;;5054364;28;20025;-48
2021/09/20 05:55:57;;;;;;;17.73;11.90;;;12.00;68.80;;;;;;5055960;28;20405;-49
2021/09/20 05:58:23;;;;;;;26.17;11.70;;;12.10;68.70;;;;;;5056029;28;20021;-48
2021/09/20 06:00:50;;;;;;;25.55;13.63;;;12.20;68.40;;;;;;5055582;28;20500;-52
2021/09/20 06:03:16;;;;;;;13.57;10.70;;;12.30;68.20;;;;;;5054592;28;20588;-51
2021/09/20 06:05:42;;;;;;;22.10;12.70;;;12.30;67.60;;;;;;5055685;28;20028;-49
2021/09/20 06:08:08;;;;;;;17.50;11.57;;;12.30;67.90;;;;;;5055931;28;20021;-47
2021/09/20 06:10:37;;;;;;;20.73;10.57;;;12.50;66.80;;;;;;5055774;28;20045;-47
2021/09/20 06:13:06;;;;;;;16.77;9.95;;;12.60;66.70;;;;;;5056088;28;20385;-47
2021/09/20 06:15:33;;;;;;;16.10;10.18;;;12.50;66.40;;;;;;5055737;28;20078;-52
2021/09/20 06:17:58;;;;;;;18.52;10.15;;;12.50;66.20;;;;;;5054829;28;20045;-47
2021/09/20 06:20:24;;;;;;;38.20;11.15;;;12.50;66.20;;;;;;5057141;28;20110;-48
2021/09/20 06:22:50;;;;;;;15.18;11.18;;;12.50;66.60;;;;;;5055500;28;20067;-47
2021/09/20 06:25:15;;;;;;;18.38;10.95;;;12.40;67.00;;;;;;5055329;28;20113;-48
2021/09/20 06:27:41;;;;;;;18.67;10.63;;;12.40;66.70;;;;;;5055508;28;20549;-51
2021/09/20 06:30:08;;;;;;;24.70;10.27;;;12.30;67.00;;;;;;5054037;28;20025;-48
2021/09/20 06:32:34;;;;;;;14.32;9.73;;;12.30;67.40;;;;;;5055047;28;20025;-48
2021/09/20 06:35:00;;;;;;;18.75;11.20;;;12.30;67.30;;;;;;5053726;28;20025;-47
2021/09/20 06:37:26;;;;;;;12.98;9.65;;;12.30;67.70;;;;;;5055156;28;20381;-48
2021/09/20 06:39:51;;;;;;;18.88;10.25;;;12.30;68.00;;;;;;5053510;28;20081;-50
2021/09/20 06:42:17;;;;;;;15.23;9.10;;;12.20;68.20;;;;;;5055107;28;20033;-50
2021/09/20 06:44:43;;;;;;;15.32;9.27;;;12.20;68.20;;;;;;5053561;28;20067;-47
2021/09/20 06:47:09;;;;;;;15.07;9.10;;;12.20;68.60;;;;;;5053589;28;20330;-48
2021/09/20 06:49:35;;;;;;;13.85;9.52;;;12.20;68.90;;;;;;5054742;28;20459;-48
2021/09/20 06:52:02;;;;;;;17.75;9.85;;;12.20;68.20;;;;;;5055065;28;20029;-51
2021/09/20 06:54:27;;;;;;;13.98;9.20;;;12.20;68.40;;;;;;5053956;28;20021;-49
2021/09/20 06:56:54;;;;;;;15.95;10.32;;;12.30;68.60;;;;;;5055337;28;20481;-49
2021/09/20 06:59:19;;;;;;;19.30;10.95;;;12.40;68.00;;;;;;5054548;28;20477;-49
2021/09/20 07:01:45;;;;;;;17.33;10.10;;;12.40;68.00;;;;;;5054459;28;20025;-48
2021/09/20 07:04:11;;;;;;;18.00;9.57;;;12.50;67.40;;;;;;5054239;28;20025;-52
2021/09/20 07:06:37;;;;;;;12.57;9.55;;;12.50;67.30;;;;;;5054656;28;20100;-49
2021/09/20 07:09:03;;;;;;;14.90;10.27;;;12.50;67.50;;;;;;5054677;28;20019;-49
2021/09/20 07:11:31;;;;;;;18.08;9.18;;;12.60;67.00;;;;;;5054631;28;20031;-47
2021/09/20 07:13:57;;;;;;;14.20;9.40;;;12.80;66.90;;;;;;5037343;28;20028;-48
2021/09/20 07:16:23;;;;;;;16.63;9.88;;;12.80;66.10;;;;;;5054377;28;20083;-48
2021/09/20 07:18:48;;;;;;;19.88;10.65;;;12.90;66.50;;;;;;5054231;28;20571;-48
2021/09/20 07:21:14;;;;;;;18.58;9.35;;;13.10;65.90;;;;;;5054352;28;20029;-48
2021/09/20 07:23:40;;;;;;;20.63;10.85;;;13.30;65.20;;;;;;5054064;28;20025;-47
2021/09/20 07:26:05;;;;;;;18.60;9.70;;;13.40;65.10;;;;;;5053743;28;20033;-48
2021/09/20 07:28:31;;;;;;;15.60;11.05;;;13.70;63.50;;;;;;5054467;28;20108;-50
2021/09/20 07:30:56;;;;;;;12.48;9.23;;;13.90;62.80;;;;;;5053010;28;20025;-49
2021/09/20 07:33:22;;;;;;;13.45;9.70;;;13.80;63.00;;;;;;5054502;28;20104;-48
2021/09/20 07:35:48;;;;;;;15.40;9.32;;;13.80;62.80;;;;;;5052360;28;20458;-49
2021/09/20 07:38:13;;;;;;;13.68;9.18;;;13.70;63.10;;;;;;5052959;28;20025;-49
2021/09/20 07:40:39;;;;;;;10.82;8.70;;;13.80;62.70;;;;;;5054224;28;20025;-48
2021/09/20 07:43:05;;;;;;;11.52;9.35;;;13.80;63.00;;;;;;5053959;28;20476;-48
2021/09/20 07:45:32;;;;;;;15.13;8.52;;;14.10;62.30;;;;;;5054155;28;20028;-48
2021/09/20 07:47:58;;;;;;;14.18;8.80;;;14.10;61.10;;;;;;5053314;28;20437;-47
2021/09/20 07:50:25;;;;;;;11.77;9.00;;;14.30;60.50;;;;;;5052358;28;20029;-48
2021/09/20 07:52:52;;;;;;;14.45;8.52;;;14.40;60.10;;;;;;5053016;28;20025;-50
2021/09/20 07:55:18;;;;;;;11.23;8.15;;;14.40;60.30;;;;;;5053639;28;20056;-50
2021/09/20 07:57:45;;;;;;;16.70;8.40;;;14.50;59.50;;;;;;5053231;28;20025;-48
2021/09/20 08:00:12;;;;;;;13.38;8.52;;;14.80;59.60;;;;;;5053028;28;20035;-48
2021/09/20 08:02:38;;;;;;;11.15;7.25;;;14.90;58.70;;;;;;5053321;28;20508;-48
2021/09/20 08:05:07;;;;;;;14.25;10.35;;;14.80;58.50;;;;;;5053123;28;20108;-48
2021/09/20 08:07:32;;;;;;;18.38;8.18;;;15.00;57.80;;;;;;5053096;28;20025;-48
2021/09/20 08:09:58;;;;;;;13.27;8.27;;;14.90;57.90;;;;;;5054246;28;20354;-48
2021/09/20 08:12:24;;;;;;;13.15;7.72;;;15.00;57.80;;;;;;5053662;28;20182;-52
2021/09/20 08:14:50;;;;;;;15.55;7.63;;;15.30;55.90;;;;;;5053470;28;20032;-48
2021/09/20 08:17:15;;;;;;;15.77;7.05;;;15.90;53.90;;;;;;5053142;28;20107;-49
2021/09/20 08:19:41;;;;;;;10.55;7.40;;;16.00;53.90;;;;;;5053332;28;20032;-50
2021/09/20 08:22:07;;;;;;;8.88;6.32;;;16.60;52.50;;;;;;5054932;28;20110;-52
2021/09/20 08:24:34;;;;;;;20.10;6.90;;;17.00;51.00;;;;;;5054425;28;20112;-49
2021/09/20 08:27:00;;;;;;;13.93;6.65;;;17.00;50.30;;;;;;5051388;28;20016;-50
2021/09/20 08:29:25;;;;;;;15.40;9.93;;;16.80;50.50;;;;;;5052511;28;20025;-49
2021/09/20 08:31:51;;;;;;;13.93;6.65;;;17.10;49.90;;;;;;5052229;28;20406;-51
2021/09/20 08:34:17;;;;;;;7.63;5.32;;;17.00;49.50;;;;;;5052462;28;20376;-49
2021/09/20 08:36:43;;;;;;;11.98;5.97;;;17.30;48.40;;;;;;5052278;28;20021;-49
2021/09/20 08:39:09;;;;;;;11.93;6.25;;;17.30;48.00;;;;;;5052678;28;20044;-48
2021/09/20 08:41:37;;;;;;;6.53;5.47;;;16.90;49.60;;;;;;5052561;28;20025;-47
2021/09/20 08:44:03;;;;;;;7.22;4.88;;;17.40;48.30;;;;;;5052375;28;20049;-49
2021/09/20 08:46:30;;;;;;;19.42;5.45;;;17.50;47.70;;;;;;5052083;28;20100;-49
2021/09/20 08:49:16;;;;;;;11.63;5.10;;;17.80;46.40;;;;;;5052127;28;20120;-50
2021/09/20 08:51:42;;;;;;;7.70;4.53;;;17.90;46.10;;;;;;5051402;28;20033;-47
2021/09/20 08:54:08;;;;;;;6.50;4.95;;;17.90;45.20;;;;;;5051858;28;20047;-48
2021/09/20 08:56:34;;;;;;;8.45;4.93;;;17.90;44.60;;;;;;5052211;28;20012;-47
2021/09/20 08:59:00;;;;;;;7.60;4.40;;;17.60;45.80;;;;;;5051816;28;20013;-49
2021/09/20 09:01:27;;;;;;;8.23;5.45;;;18.10;45.30;;;;;;5051694;28;20025;-49
2021/09/20 09:04:12;;;;;;;4.43;4.00;;;18.20;45.30;;;;;;5050426;28;20507;-52
2021/09/20 09:06:38;;;;;;;5.97;4.80;;;18.20;45.10;;;;;;5050628;28;20021;-53
2021/09/20 09:09:04;;;;;;;8.57;5.22;;;18.30;45.20;;;;;;5052617;28;20047;-49
2021/09/20 09:11:29;;;;;;;9.43;4.65;;;18.40;44.50;;;;;;5052484;28;20492;-50
2021/09/20 09:13:59;;;;;;;8.07;6.30;;;18.30;44.60;;;;;;5053458;28;20032;-48
2021/09/20 09:16:29;;;;;;;6.22;4.57;;;18.50;44.50;;;;;;5053695;28;20112;-51
2021/09/20 09:19:07;;;;;;;6.35;4.20;;;18.40;45.00;;;;;;5051880;28;20083;-51
2021/09/20 09:21:38;;;;;;;7.45;4.20;;;18.50;43.70;;;;;;5052182;28;20071;-49
2021/09/20 09:24:12;;;;;;;4.88;4.35;;;18.70;43.90;;;;;;5052203;28;20519;-50
2021/09/20 09:26:38;;;;;;;7.30;4.30;;;17.90;44.90;;;;;;5051958;28;20098;-49
2021/09/20 09:29:14;;;;;;;6.53;4.40;;;18.20;45.20;;;;;;5050221;28;20357;-48
2021/09/20 09:31:50;;;;;;;5.88;4.18;;;18.60;43.10;;;;;;5051590;28;20071;-48
2021/09/20 09:34:21;;;;;;;13.38;4.55;;;19.20;42.40;;;;;;5051790;28;20032;-49
2021/09/20 09:36:47;;;;;;;7.55;3.92;;;19.60;41.80;;;;;;5052088;28;20035;-49
2021/09/20 09:39:14;;;;;;;6.90;4.28;;;19.80;41.70;;;;;;5052462;28;20056;-51
2021/09/20 09:41:44;;;;;;;5.45;4.40;;;19.10;42.60;;;;;;5052213;28;20056;-50
2021/09/20 09:44:11;;;;;;;;;;;19.60;41.80;;;;;;5052180;28;20040;-48
2021/09/20 09:46:39;;;;;;;7.00;4.47;;;18.60;42.30;;;;;;5051914;28;19981;-48
2021/09/20 09:49:18;;;;;;;5.22;4.32;;;18.90;41.90;;;;;;5051654;28;20070;-52
2021/09/20 09:52:03;;;;;;;6.40;4.75;;;19.80;41.00;;;;;;5051628;28;20056;-52
2021/09/20 09:54:35;;;;;;;7.60;4.50;;;20.00;40.30;;;;;;5051121;28;20071;-48
2021/09/20 09:57:18;;;;;;;9.27;5.90;;;20.80;38.80;;;;;;5052943;28;20025;-49
2021/09/20 10:00:04;;;;;;;5.97;4.97;;;21.00;38.40;;;;;;5053270;28;20032;-49
2021/09/20 10:02:32;;;;;;;8.63;5.05;;;20.10;39.60;;;;;;5052572;28;20108;-54
2021/09/20 10:05:02;;;;;;;10.80;6.10;;;19.10;41.90;;;;;;5052120;28;20021;-51
2021/09/20 10:07:36;;;;;;;7.38;4.93;;;19.50;40.00;;;;;;5051814;28;20025;-51
2021/09/20 10:10:05;;;;;;;7.63;4.78;;;19.60;40.10;;;;;;5051623;28;20475;-52
2021/09/20 10:12:31;;;;;;;8.70;5.65;;;20.70;37.50;;;;;;5051373;28;20056;-49
2021/09/20 10:14:59;;;;;;;8.73;5.50;;;20.20;38.50;;;;;;5051227;28;20409;-49
2021/09/20 10:17:27;;;;;;;7.10;4.60;;;19.30;41.10;;;;;;5054774;28;20049;-50
2021/09/20 10:19:53;;;;;;;7.20;5.53;;;19.30;40.80;;;;;;5036826;28;20429;-49
2021/09/20 10:22:20;;;;;;;10.05;6.22;;;18.70;41.30;;;;;;5037366;28;20029;-51
2021/09/20 10:24:49;;;;;;;6.00;4.97;;;18.90;41.50;;;;;;5055341;28;20081;-49
2021/09/20 10:27:18;;;;;;;5.55;4.60;;;19.10;40.90;;;;;;5055021;28;20068;-49
2021/09/20 10:30:03;;;;;;;7.65;5.25;;;19.20;40.70;;;;;;5055053;28;20018;-48
2021/09/20 10:32:30;;;;;;;10.23;5.22;;;19.30;40.90;;;;;;5054909;28;20488;-49
2021/09/20 10:35:22;;;;;;;9.10;5.70;;;19.50;40.10;;;;;;5053260;28;20035;-48
2021/09/20 10:37:48;;;;;;;5.43;4.93;;;19.40;40.60;;;;;;5055172;28;20045;-48
2021/09/20 10:40:15;;;;;;;9.25;6.53;;;18.30;42.40;;;;;;5052691;28;20465;-48
2021/09/20 10:43:03;;;;;;;10.10;5.93;;;18.10;43.80;;;;;;5053186;28;20158;-48
2021/09/20 10:45:45;;;;;;;10.27;6.22;;;18.80;42.20;;;;;;5054507;28;20029;-48
2021/09/20 10:48:13;;;;;;;9.85;6.00;;;19.30;40.90;;;;;;5054735;28;20033;-53
2021/09/20 10:50:50;;;;;;;6.85;6.10;;;19.60;41.10;;;;;;5054524;28;20028;-49
2021/09/20 10:53:33;;;;;;;10.40;6.60;;;20.00;39.70;;;;;;5054451;28;20020;-48
2021/09/20 10:56:02;;;;;;;7.18;6.28;;;20.60;38.80;;;;;;5054605;28;20025;-48
2021/09/20 10:58:33;;;;;;;10.95;6.05;;;20.30;39.30;;;;;;5054280;28;20142;-48
2021/09/20 11:01:11;;;;;;;8.48;5.45;;;19.40;40.40;;;;;;5053022;28;20186;-51
2021/09/20 11:03:59;;;;;;;12.63;6.18;;;18.60;42.40;;;;;;5054457;28;20025;-50
2021/09/20 11:06:39;;;;;;;6.65;6.00;;;18.20;43.30;;;;;;5053940;28;20039;-48
2021/09/20 11:09:08;;;;;;;10.60;5.95;;;18.20;44.10;;;;;;5054494;28;20029;-49
2021/09/20 11:11:41;;;;;;;6.68;5.97;;;18.10;44.90;;;;;;5054395;28;20113;-49
2021/09/20 11:14:18;;;;;;;8.85;6.53;;;18.40;44.20;;;;;;5052543;28;20174;-48
2021/09/20 11:16:50;;;;;;;7.47;5.82;;;19.30;42.10;;;;;;5054389;28;20025;-49
2021/09/20 11:19:27;;;;;;;9.35;6.65;;;18.70;43.30;;;;;;5053799;28;20069;-49
2021/09/20 11:24:36;;;;;;;7.97;6.13;;;18.30;44.10;;;;;;5053819;28;20021;-49
2021/09/20 11:27:26;;;;;;;10.02;6.38;;;18.20;44.20;;;;;;5052319;28;20021;-49
2021/09/20 11:30:06;;;;;;;8.77;5.47;;;18.10;45.30;;;;;;5053201;28;20123;-47
2021/09/20 11:32:32;;;;;;;8.65;7.07;;;19.10;43.00;;;;;;5053627;28;20036;-48
2021/09/20 11:35:00;;;;;;;10.50;8.05;;;19.40;42.60;;;;;;5054431;28;20124;-47
2021/09/20 11:37:31;;;;;;;7.78;6.15;;;19.30;43.10;;;;;;5054201;28;20481;-50
2021/09/20 11:39:56;;;;;;;6.95;6.25;;;18.70;44.10;;;;;;5053655;28;20453;-47
2021/09/20 11:42:44;;;;;;;8.55;6.82;;;17.90;46.00;;;;;;5053690;28;20097;-48
2021/09/20 11:45:20;;;;;;;9.18;6.00;;;18.20;45.80;;;;;;5053980;28;20119;-48
2021/09/20 11:47:58;;;;;;;8.77;5.63;;;17.60;46.80;;;;;;5053089;28;20357;-49
2021/09/20 11:50:42;;;;;;;7.78;5.70;;;17.90;47.00;;;;;;5053370;28;20025;-49
2021/09/20 11:53:20;;;;;;;11.63;5.68;;;18.00;46.50;;;;;;5053667;28;20107;-51
2021/09/20 11:55:49;;;;;;;10.35;6.65;;;18.00;46.80;;;;;;5053543;28;20025;-49
2021/09/20 11:58:17;;;;;;;7.55;5.65;;;18.30;46.20;;;;;;5051737;28;20029;-48
2021/09/20 12:00:48;;;;;;;8.35;5.15;;;18.70;45.20;;;;;;5053334;28;20078;-47
2021/09/20 12:03:15;;;;;;;25.33;6.40;;;18.80;45.00;;;;;;5051882;28;20029;-49
2021/09/20 12:05:45;;;;;;;7.10;5.15;;;18.50;45.30;;;;;;5053049;28;20488;-49
2021/09/20 12:08:19;;;;;;;10.47;6.20;;;18.70;45.30;;;;;;5051999;28;20049;-49
2021/09/20 12:10:53;;;;;;;11.45;7.97;;;18.40;45.70;;;;;;5052879;28;20040;-52
2021/09/20 12:13:31;;;;;;;8.82;5.80;;;18.30;45.60;;;;;;5052884;28;20025;-50
2021/09/20 12:16:07;;;;;;;9.73;7.22;;;19.30;43.60;;;;;;5052871;28;20384;-50
2021/09/20 12:18:33;;;;;;;5.45;4.88;;;20.40;40.80;;;;;;5052569;28;20170;-51
2021/09/20 12:21:05;;;;;;;8.85;4.25;;;20.70;40.40;;;;;;5051608;28;20112;-50
2021/09/20 12:23:37;;;;;;;5.03;4.35;;;21.40;38.40;;;;;;5051844;28;20029;-47
2021/09/20 12:33:09;;;;;;;4.78;3.75;;;18.70;44.80;;;;;;5053974;28;20493;-49
2021/09/20 12:35:37;;;;;;;4.70;4.30;;;18.20;46.20;;;;;;5053025;28;20487;-49
2021/09/20 12:38:31;;;;;;;5.45;4.18;;;18.00;46.90;;;;;;5052817;28;20025;-51
2021/09/20 12:41:11;;;;;;;10.43;4.78;;;17.70;47.30;;;;;;5052859;28;20028;-49
2021/09/20 12:43:37;;;;;;;9.65;4.95;;;17.30;48.30;;;;;;5053039;28;20029;-50
2021/09/20 12:46:10;;;;;;;6.03;4.05;;;17.90;47.40;;;;;;5052893;28;20047;-48
2021/09/20 12:48:38;;;;;;;5.45;4.00;;;17.90;46.60;;;;;;5052556;28;20033;-48
2021/09/20 12:51:07;;;;;;;7.05;3.70;;;18.00;46.50;;;;;;5050966;28;20179;-51
2021/09/20 12:53:49;;;;;;;6.05;4.35;;;18.00;46.40;;;;;;5052550;28;20408;-50